sensor_id;sensor_type;location;lat;lon;timestamp;temperature;humidity
30001;DHT22;16845;48.670;9.000;2022-09-16T00:00:56;13.30;99.90
30001;DHT22;16845;48.670;9.000;2022-09-16T00:03:24;13.30;99.90
30001;DHT22;16845;48.670;9.000;2022-09-16T00:05:53;13.30;99.90
30001;DHT22;16845;48.670;9.000;2022-09-16T00:08:21;13.30;99.90
30001;DHT22;16845;48.670;9.000;2022-09-16T00:10:49;13.30;99.90
30001;DHT22;16845;48.670;9.000;2022-09-16T00:13:18;13.30;99.90
30001;DHT22;16845;48.670;9.000;2022-09-16T00:15:48;13.30;99.90
30001;DHT22;16845;48.670;9.000;2022-09-16T00:18:17;13.30;99.90
30001;DHT22;16845;48.670;9.000;2022-09-16T00:20:47;13.20;99.90
30001;DHT22;16845;48.670;9.000;2022-09-16T00:23:17;13.20;99.90
30001;DHT22;16845;48.670;9.000;2022-09-16T00:25:49;13.20;99.90
30001;DHT22;16845;48.670;9.000;2022-09-16T00:28:18;13.20;99.90
30001;DHT22;16845;48.670;9.000;2022-09-16T00:30:47;13.20;99.90
30001;DHT22;16845;48.670;9.000;2022-09-16T00:33:15;13.10;99.90
30001;DHT22;16845;48.670;9.000;2022-09-16T00:35:43;13.10;99.90
30001;DHT22;16845;48.670;9.000;2022-09-16T00:38:12;13.10;99.90
30001;DHT22;16845;48.670;9.000;2022-09-16T00:40:44;13.10;99.90
30001;DHT22;16845;48.670;9.000;2022-09-16T00:43:13;13.00;99.90
30001;DHT22;16845;48.670;9.000;2022-09-16T00:45:43;13.00;99.90
30001;DHT22;16845;48.670;9.000;2022-09-16T00:48:17;13.00;99.90
30001;DHT22;16845;48.670;9.000;2022-09-16T00:50:49;13.00;99.90
30001;DHT22;16845;48.670;9.000;2022-09-16T00:53:21;12.90;99.90
30001;DHT22;16845;48.670;9.000;2022-09-16T00:55:52;12.90;99.90
30001;DHT22;16845;48.670;9.000;2022-09-16T00:58:25;12.90;99.90
30001;DHT22;16845;48.670;9.000;2022-09-16T01:00:54;12.90;99.90
30001;DHT22;16845;48.670;9.000;2022-09-16T01:03:24;13.00;99.90
30001;DHT22;16845;48.670;9.000;2022-09-16T01:05:52;13.00;99.90
30001;DHT22;16845;48.670;9.000;2022-09-16T01:08:20;13.00;99.90
30001;DHT22;16845;48.670;9.000;2022-09-16T01:10:48;13.00;99.90
30001;DHT22;16845;48.670;9.000;2022-09-16T01:13:18;13.00;99.90
30001;DHT22;16845;48.670;9.000;2022-09-16T01:15:54;13.10;99.90
30001;DHT22;16845;48.670;9.000;2022-09-16T01:18:30;13.10;99.90
30001;DHT22;16845;48.670;9.000;2022-09-16T01:21:19;13.10;99.90
30001;DHT22;16845;48.670;9.000;2022-09-16T01:27:04;13.20;99.90
30001;DHT22;16845;48.670;9.000;2022-09-16T01:30:19;13.20;99.90
30001;DHT22;16845;48.670;9.000;2022-09-16T01:32:59;13.20;99.90
30001;DHT22;16845;48.670;9.000;2022-09-16T01:35:50;13.20;99.90
30001;DHT22;16845;48.670;9.000;2022-09-16T01:38:28;13.20;99.90
30001;DHT22;16845;48.670;9.000;2022-09-16T01:41:06;13.20;99.90
30001;DHT22;16845;48.670;9.000;2022-09-16T01:43:44;13.10;99.90
30001;DHT22;16845;48.670;9.000;2022-09-16T01:46:21;13.00;99.90
30001;DHT22;16845;48.670;9.000;2022-09-16T01:48:56;13.10;99.90
30001;DHT22;16845;48.670;9.000;2022-09-16T01:51:29;13.00;99.90
30001;DHT22;16845;48.670;9.000;2022-09-16T01:54:04;12.90;99.90
30001;DHT22;16845;48.670;9.000;2022-09-16T01:56:38;12.80;99.90
30001;DHT22;16845;48.670;9.000;2022-09-16T01:59:09;12.80;99.90
30001;DHT22;16845;48.670;9.000;2022-09-16T02:01:42;12.90;99.90
30001;DHT22;16845;48.670;9.000;2022-09-16T02:04:18;12.90;99.90
30001;DHT22;16845;48.670;9.000;2022-09-16T02:06:49;12.90;99.90
30001;DHT22;16845;48.670;9.000;2022-09-16T02:09:21;13.00;99.90
30001;DHT22;16845;48.670;9.000;2022-09-16T02:11:53;12.90;99.90
30001;DHT22;16845;48.670;9.000;2022-09-16T02:14:26;12.90;99.90
30001;DHT22;16845;48.670;9.000;2022-09-16T02:16:58;12.80;99.90
30001;DHT22;16845;48.670;9.000;2022-09-16T02:19:33;12.80;99.90
30001;DHT22;16845;48.670;9.000;2022-09-16T02:22:06;12.70;99.90
30001;DHT22;16845;48.670;9.000;2022-09-16T02:24:36;12.60;99.90
30001;DHT22;16845;48.670;9.000;2022-09-16T02:27:10;12.60;99.90
30001;DHT22;16845;48.670;9.000;2022-09-16T02:29:45;12.60;99.90
30001;DHT22;16845;48.670;9.000;2022-09-16T02:32:14;12.50;99.90
30001;DHT22;16845;48.670;9.000;2022-09-16T02:34:46;12.50;99.90
30001;DHT22;16845;48.670;9.000;2022-09-16T02:37:18;12.50;99.90
30001;DHT22;16845;48.670;9.000;2022-09-16T02:39:49;12.40;99.90
30001;DHT22;16845;48.670;9.000;2022-09-16T02:42:22;12.40;99.90
30001;DHT22;16845;48.670;9.000;2022-09-16T02:44:50;12.30;99.90
30001;DHT22;16845;48.670;9.000;2022-09-16T02:47:25;12.30;99.90
30001;DHT22;16845;48.670;9.000;2022-09-16T02:49:59;12.30;99.90
30001;DHT22;16845;48.670;9.000;2022-09-16T02:52:33;12.30;99.90
30001;DHT22;16845;48.670;9.000;2022-09-16T02:55:10;12.20;99.90
30001;DHT22;16845;48.670;9.000;2022-09-16T02:57:40;12.20;99.90
30001;DHT22;16845;48.670;9.000;2022-09-16T03:00:09;12.10;99.90
30001;DHT22;16845;48.670;9.000;2022-09-16T03:02:37;12.10;99.90
30001;DHT22;16845;48.670;9.000;2022-09-16T03:05:07;12.20;99.90
30001;DHT22;16845;48.670;9.000;2022-09-16T03:07:36;12.20;99.90
30001;DHT22;16845;48.670;9.000;2022-09-16T03:10:08;12.20;99.90
30001;DHT22;16845;48.670;9.000;2022-09-16T03:12:49;12.30;99.90
30001;DHT22;16845;48.670;9.000;2022-09-16T03:15:35;12.40;99.90
30001;DHT22;16845;48.670;9.000;2022-09-16T03:18:20;12.40;99.90
30001;DHT22;16845;48.670;9.000;2022-09-16T03:20:57;12.50;99.90
30001;DHT22;16845;48.670;9.000;2022-09-16T03:23:38;12.60;99.90
30001;DHT22;16845;48.670;9.000;2022-09-16T03:26:17;12.60;99.90
30001;DHT22;16845;48.670;9.000;2022-09-16T03:28:53;12.60;99.90
30001;DHT22;16845;48.670;9.000;2022-09-16T03:31:27;12.60;99.90
30001;DHT22;16845;48.670;9.000;2022-09-16T03:34:00;12.70;99.90
30001;DHT22;16845;48.670;9.000;2022-09-16T03:36:34;12.70;99.90
30001;DHT22;16845;48.670;9.000;2022-09-16T03:39:04;12.70;99.90
30001;DHT22;16845;48.670;9.000;2022-09-16T03:41:32;12.70;99.90
30001;DHT22;16845;48.670;9.000;2022-09-16T03:44:01;12.70;99.90
30001;DHT22;16845;48.670;9.000;2022-09-16T03:46:30;12.80;99.90
30001;DHT22;16845;48.670;9.000;2022-09-16T03:48:58;12.80;99.90
30001;DHT22;16845;48.670;9.000;2022-09-16T03:51:26;12.80;99.90
30001;DHT22;16845;48.670;9.000;2022-09-16T03:53:55;12.90;99.90
30001;DHT22;16845;48.670;9.000;2022-09-16T03:56:24;12.90;99.90
30001;DHT22;16845;48.670;9.000;2022-09-16T03:58:52;12.80;99.90
30001;DHT22;16845;48.670;9.000;2022-09-16T04:01:20;12.80;99.90
30001;DHT22;16845;48.670;9.000;2022-09-16T04:03:48;12.90;99.90
30001;DHT22;16845;48.670;9.000;2022-09-16T04:06:18;12.80;99.90
30001;DHT22;16845;48.670;9.000;2022-09-16T04:08:45;12.80;99.90
30001;DHT22;16845;48.670;9.000;2022-09-16T04:11:17;12.80;99.90
30001;DHT22;16845;48.670;9.000;2022-09-16T04:13:45;12.80;99.90
30001;DHT22;16845;48.670;9.000;2022-09-16T04:16:18;12.80;99.90
30001;DHT22;16845;48.670;9.000;2022-09-16T04:18:47;12.80;99.90
30001;DHT22;16845;48.670;9.000;2022-09-16T04:21:15;12.80;99.90
30001;DHT22;16845;48.670;9.000;2022-09-16T04:23:43;12.80;99.90
30001;DHT22;16845;48.670;9.000;2022-09-16T04:26:11;12.80;99.90
30001;DHT22;16845;48.670;9.000;2022-09-16T04:28:40;12.70;99.90
30001;DHT22;16845;48.670;9.000;2022-09-16T04:31:10;12.80;99.90
30001;DHT22;16845;48.670;9.000;2022-09-16T04:33:39;12.80;99.90
30001;DHT22;16845;48.670;9.000;2022-09-16T04:36:08;12.80;99.90
30001;DHT22;16845;48.670;9.000;2022-09-16T04:38:38;12.80;99.90
30001;DHT22;16845;48.670;9.000;2022-09-16T04:41:09;12.80;99.90
30001;DHT22;16845;48.670;9.000;2022-09-16T04:43:37;12.80;99.90
30001;DHT22;16845;48.670;9.000;2022-09-16T04:46:07;12.80;99.90
30001;DHT22;16845;48.670;9.000;2022-09-16T04:48:35;12.90;99.90
30001;DHT22;16845;48.670;9.000;2022-09-16T04:51:06;12.80;99.90
30001;DHT22;16845;48.670;9.000;2022-09-16T04:53:34;12.80;99.90
30001;DHT22;16845;48.670;9.000;2022-09-16T04:56:04;12.90;99.90
30001;DHT22;16845;48.670;9.000;2022-09-16T04:58:32;12.90;99.90
30001;DHT22;16845;48.670;9.000;2022-09-16T05:01:06;12.90;99.90
30001;DHT22;16845;48.670;9.000;2022-09-16T05:03:38;12.90;99.90
30001;DHT22;16845;48.670;9.000;2022-09-16T05:06:09;12.90;99.90
30001;DHT22;16845;48.670;9.000;2022-09-16T05:08:38;12.90;99.90
30001;DHT22;16845;48.670;9.000;2022-09-16T05:11:07;12.80;99.90
30001;DHT22;16845;48.670;9.000;2022-09-16T05:13:36;12.80;99.90
30001;DHT22;16845;48.670;9.000;2022-09-16T05:16:08;12.80;99.90
30001;DHT22;16845;48.670;9.000;2022-09-16T05:18:38;12.80;99.90
30001;DHT22;16845;48.670;9.000;2022-09-16T05:21:08;12.70;99.90
30001;DHT22;16845;48.670;9.000;2022-09-16T05:23:37;12.80;99.90
30001;DHT22;16845;48.670;9.000;2022-09-16T05:26:14;12.80;99.90
30001;DHT22;16845;48.670;9.000;2022-09-16T05:28:42;12.80;99.90
30001;DHT22;16845;48.670;9.000;2022-09-16T05:31:13;12.70;99.90
30001;DHT22;16845;48.670;9.000;2022-09-16T05:33:43;12.70;99.90
30001;DHT22;16845;48.670;9.000;2022-09-16T05:36:13;12.70;99.90
30001;DHT22;16845;48.670;9.000;2022-09-16T05:38:42;12.70;99.90
30001;DHT22;16845;48.670;9.000;2022-09-16T05:41:30;12.60;99.90
30001;DHT22;16845;48.670;9.000;2022-09-16T05:43:58;12.60;99.90
30001;DHT22;16845;48.670;9.000;2022-09-16T05:46:27;12.50;99.90
30001;DHT22;16845;48.670;9.000;2022-09-16T05:48:56;12.60;99.90
30001;DHT22;16845;48.670;9.000;2022-09-16T05:51:24;12.60;99.90
30001;DHT22;16845;48.670;9.000;2022-09-16T05:53:53;12.50;99.90
30001;DHT22;16845;48.670;9.000;2022-09-16T05:56:22;12.50;99.90
30001;DHT22;16845;48.670;9.000;2022-09-16T05:58:51;12.50;99.90
30001;DHT22;16845;48.670;9.000;2022-09-16T06:01:21;12.50;99.90
30001;DHT22;16845;48.670;9.000;2022-09-16T06:03:52;12.50;99.90
30001;DHT22;16845;48.670;9.000;2022-09-16T06:06:23;12.50;99.90
30001;DHT22;16845;48.670;9.000;2022-09-16T06:08:53;12.50;99.90
30001;DHT22;16845;48.670;9.000;2022-09-16T06:11:21;12.50;99.90
30001;DHT22;16845;48.670;9.000;2022-09-16T06:13:52;12.50;99.90
30001;DHT22;16845;48.670;9.000;2022-09-16T06:16:22;12.50;99.90
30001;DHT22;16845;48.670;9.000;2022-09-16T06:18:53;12.40;99.90
30001;DHT22;16845;48.670;9.000;2022-09-16T06:21:21;12.40;99.90
30001;DHT22;16845;48.670;9.000;2022-09-16T06:23:50;12.40;99.90
30001;DHT22;16845;48.670;9.000;2022-09-16T06:26:20;12.40;99.90
30001;DHT22;16845;48.670;9.000;2022-09-16T06:28:48;12.40;99.90
30001;DHT22;16845;48.670;9.000;2022-09-16T06:31:18;12.40;99.90
30001;DHT22;16845;48.670;9.000;2022-09-16T06:33:47;12.40;99.90
30001;DHT22;16845;48.670;9.000;2022-09-16T06:36:18;12.40;99.90
30001;DHT22;16845;48.670;9.000;2022-09-16T06:38:46;12.40;99.90
30001;DHT22;16845;48.670;9.000;2022-09-16T06:41:16;12.40;99.90
30001;DHT22;16845;48.670;9.000;2022-09-16T06:43:44;12.50;99.90
30001;DHT22;16845;48.670;9.000;2022-09-16T06:46:14;12.50;99.90
30001;DHT22;16845;48.670;9.000;2022-09-16T06:48:43;12.50;99.90
30001;DHT22;16845;48.670;9.000;2022-09-16T06:51:15;12.50;99.90
30001;DHT22;16845;48.670;9.000;2022-09-16T06:53:45;12.50;99.90
30001;DHT22;16845;48.670;9.000;2022-09-16T06:56:15;12.40;99.90
30001;DHT22;16845;48.670;9.000;2022-09-16T06:58:45;12.30;99.90
30001;DHT22;16845;48.670;9.000;2022-09-16T07:01:15;12.30;99.90
30001;DHT22;16845;48.670;9.000;2022-09-16T07:03:45;12.30;99.90
30001;DHT22;16845;48.670;9.000;2022-09-16T07:06:14;12.30;99.90
30001;DHT22;16845;48.670;9.000;2022-09-16T07:08:44;12.20;99.90
30001;DHT22;16845;48.670;9.000;2022-09-16T07:11:14;12.30;99.90
30001;DHT22;16845;48.670;9.000;2022-09-16T07:13:42;12.20;99.90
30001;DHT22;16845;48.670;9.000;2022-09-16T07:16:12;12.30;99.90
30001;DHT22;16845;48.670;9.000;2022-09-16T07:18:41;12.30;99.90
30001;DHT22;16845;48.670;9.000;2022-09-16T07:21:11;12.30;99.90
30001;DHT22;16845;48.670;9.000;2022-09-16T07:23:40;12.10;99.90
30001;DHT22;16845;48.670;9.000;2022-09-16T07:26:11;12.10;99.90
30001;DHT22;16845;48.670;9.000;2022-09-16T07:28:40;12.00;99.90
30001;DHT22;16845;48.670;9.000;2022-09-16T07:31:11;12.00;99.90
30001;DHT22;16845;48.670;9.000;2022-09-16T07:33:41;12.10;99.90
30001;DHT22;16845;48.670;9.000;2022-09-16T07:36:11;12.00;99.90
30001;DHT22;16845;48.670;9.000;2022-09-16T07:38:39;12.00;99.90
30001;DHT22;16845;48.670;9.000;2022-09-16T07:41:10;12.00;99.90
30001;DHT22;16845;48.670;9.000;2022-09-16T07:43:40;12.00;99.90
30001;DHT22;16845;48.670;9.000;2022-09-16T07:46:10;12.00;99.90
30001;DHT22;16845;48.670;9.000;2022-09-16T07:48:38;12.00;99.90
30001;DHT22;16845;48.670;9.000;2022-09-16T07:51:07;12.10;99.90
30001;DHT22;16845;48.670;9.000;2022-09-16T07:53:36;12.20;99.90
30001;DHT22;16845;48.670;9.000;2022-09-16T07:56:06;12.20;99.90
30001;DHT22;16845;48.670;9.000;2022-09-16T07:58:36;12.30;99.90
30001;DHT22;16845;48.670;9.000;2022-09-16T08:01:05;12.30;99.90
30001;DHT22;16845;48.670;9.000;2022-09-16T08:03:34;12.30;99.90
30001;DHT22;16845;48.670;9.000;2022-09-16T08:06:04;12.30;99.90
30001;DHT22;16845;48.670;9.000;2022-09-16T08:08:33;12.30;99.90
30001;DHT22;16845;48.670;9.000;2022-09-16T08:11:02;12.30;99.90
30001;DHT22;16845;48.670;9.000;2022-09-16T08:13:31;12.30;99.90
30001;DHT22;16845;48.670;9.000;2022-09-16T08:16:02;12.40;99.90
30001;DHT22;16845;48.670;9.000;2022-09-16T08:18:32;12.50;99.90
30001;DHT22;16845;48.670;9.000;2022-09-16T08:21:04;12.60;99.90
30001;DHT22;16845;48.670;9.000;2022-09-16T08:23:33;12.70;99.90
30001;DHT22;16845;48.670;9.000;2022-09-16T08:26:03;12.90;99.90
30001;DHT22;16845;48.670;9.000;2022-09-16T08:28:31;13.10;99.90
30001;DHT22;16845;48.670;9.000;2022-09-16T08:31:20;13.30;99.90
30001;DHT22;16845;48.670;9.000;2022-09-16T08:33:48;13.50;99.90
30001;DHT22;16845;48.670;9.000;2022-09-16T08:36:18;13.50;99.90
30001;DHT22;16845;48.670;9.000;2022-09-16T08:38:48;13.50;99.90
30001;DHT22;16845;48.670;9.000;2022-09-16T08:41:25;13.50;99.90
30001;DHT22;16845;48.670;9.000;2022-09-16T08:44:08;13.30;99.90
30001;DHT22;16845;48.670;9.000;2022-09-16T08:46:49;13.40;99.90
30001;DHT22;16845;48.670;9.000;2022-09-16T08:49:24;13.20;99.90
30001;DHT22;16845;48.670;9.000;2022-09-16T08:51:54;13.00;99.90
30001;DHT22;16845;48.670;9.000;2022-09-16T08:54:26;13.00;99.90
30001;DHT22;16845;48.670;9.000;2022-09-16T08:56:58;13.00;99.90
30001;DHT22;16845;48.670;9.000;2022-09-16T08:59:31;13.00;99.90
30001;DHT22;16845;48.670;9.000;2022-09-16T09:02:17;13.00;99.90
30001;DHT22;16845;48.670;9.000;2022-09-16T09:04:48;12.90;99.90
30001;DHT22;16845;48.670;9.000;2022-09-16T09:07:21;12.80;99.90
30001;DHT22;16845;48.670;9.000;2022-09-16T09:09:59;12.80;99.90
30001;DHT22;16845;48.670;9.000;2022-09-16T09:12:36;12.80;99.90
30001;DHT22;16845;48.670;9.000;2022-09-16T09:15:20;13.00;99.90
30001;DHT22;16845;48.670;9.000;2022-09-16T09:18:03;12.90;99.90
30001;DHT22;16845;48.670;9.000;2022-09-16T09:20:47;13.00;99.90
30001;DHT22;16845;48.670;9.000;2022-09-16T09:23:31;13.20;99.90
30001;DHT22;16845;48.670;9.000;2022-09-16T09:26:03;13.20;99.90
30001;DHT22;16845;48.670;9.000;2022-09-16T09:28:48;13.10;99.90
30001;DHT22;16845;48.670;9.000;2022-09-16T09:31:26;13.30;99.90
30001;DHT22;16845;48.670;9.000;2022-09-16T09:34:02;13.30;99.90
30001;DHT22;16845;48.670;9.000;2022-09-16T09:36:45;13.40;99.90
30001;DHT22;16845;48.670;9.000;2022-09-16T09:39:26;13.30;99.90
30001;DHT22;16845;48.670;9.000;2022-09-16T09:41:59;13.30;99.90
30001;DHT22;16845;48.670;9.000;2022-09-16T09:44:40;13.40;99.90
30001;DHT22;16845;48.670;9.000;2022-09-16T09:47:11;13.30;99.90
30001;DHT22;16845;48.670;9.000;2022-09-16T09:49:43;13.20;99.90
30001;DHT22;16845;48.670;9.000;2022-09-16T09:52:16;13.20;99.90
30001;DHT22;16845;48.670;9.000;2022-09-16T09:54:48;13.20;99.90
30001;DHT22;16845;48.670;9.000;2022-09-16T09:57:23;13.30;99.90
30001;DHT22;16845;48.670;9.000;2022-09-16T09:59:59;13.40;99.90
30001;DHT22;16845;48.670;9.000;2022-09-16T10:02:29;13.50;99.90
30001;DHT22;16845;48.670;9.000;2022-09-16T10:04:59;13.50;99.90
30001;DHT22;16845;48.670;9.000;2022-09-16T10:07:27;13.50;99.90
30001;DHT22;16845;48.670;9.000;2022-09-16T10:09:58;13.50;99.90
30001;DHT22;16845;48.670;9.000;2022-09-16T10:12:29;13.50;99.90
30001;DHT22;16845;48.670;9.000;2022-09-16T10:14:58;13.50;99.90
30001;DHT22;16845;48.670;9.000;2022-09-16T10:17:30;13.60;99.90
30001;DHT22;16845;48.670;9.000;2022-09-16T10:20:02;13.60;99.90
30001;DHT22;16845;48.670;9.000;2022-09-16T10:22:33;13.70;99.90
30001;DHT22;16845;48.670;9.000;2022-09-16T10:25:03;13.90;99.90
30001;DHT22;16845;48.670;9.000;2022-09-16T10:27:33;14.20;99.90
30001;DHT22;16845;48.670;9.000;2022-09-16T10:30:11;14.30;99.90
30001;DHT22;16845;48.670;9.000;2022-09-16T10:32:46;14.70;99.90
30001;DHT22;16845;48.670;9.000;2022-09-16T10:35:19;14.60;99.90
30001;DHT22;16845;48.670;9.000;2022-09-16T10:37:53;14.60;99.90
30001;DHT22;16845;48.670;9.000;2022-09-16T10:40:23;14.70;99.90
30001;DHT22;16845;48.670;9.000;2022-09-16T10:42:53;14.90;99.90
30001;DHT22;16845;48.670;9.000;2022-09-16T10:45:26;14.90;99.90
30001;DHT22;16845;48.670;9.000;2022-09-16T10:47:57;14.90;99.90
30001;DHT22;16845;48.670;9.000;2022-09-16T10:50:32;14.70;99.90
30001;DHT22;16845;48.670;9.000;2022-09-16T10:52:59;14.60;99.90
30001;DHT22;16845;48.670;9.000;2022-09-16T10:55:29;14.40;99.90
30001;DHT22;16845;48.670;9.000;2022-09-16T10:58:07;14.40;99.90
30001;DHT22;16845;48.670;9.000;2022-09-16T11:00:42;14.30;99.90
30001;DHT22;16845;48.670;9.000;2022-09-16T11:06:42;14.40;99.90
30001;DHT22;16845;48.670;9.000;2022-09-16T11:09:18;14.30;99.90
30001;DHT22;16845;48.670;9.000;2022-09-16T11:12:00;14.20;99.90
30001;DHT22;16845;48.670;9.000;2022-09-16T11:14:43;14.10;99.90
30001;DHT22;16845;48.670;9.000;2022-09-16T11:17:25;14.10;99.90
30001;DHT22;16845;48.670;9.000;2022-09-16T11:20:14;13.90;99.90
30001;DHT22;16845;48.670;9.000;2022-09-16T11:22:52;13.90;99.90
30001;DHT22;16845;48.670;9.000;2022-09-16T11:25:34;13.80;99.90
30001;DHT22;16845;48.670;9.000;2022-09-16T11:28:18;13.70;99.90
30001;DHT22;16845;48.670;9.000;2022-09-16T11:30:54;13.80;99.90
30001;DHT22;16845;48.670;9.000;2022-09-16T11:33:31;13.90;99.90
30001;DHT22;16845;48.670;9.000;2022-09-16T11:36:10;14.00;99.90
30001;DHT22;16845;48.670;9.000;2022-09-16T11:38:56;14.00;99.90
30001;DHT22;16845;48.670;9.000;2022-09-16T11:41:30;14.30;99.90
30001;DHT22;16845;48.670;9.000;2022-09-16T11:44:28;14.50;99.90
30001;DHT22;16845;48.670;9.000;2022-09-16T11:47:22;14.70;99.90
30001;DHT22;16845;48.670;9.000;2022-09-16T11:50:02;14.90;99.90
30001;DHT22;16845;48.670;9.000;2022-09-16T11:52:46;15.00;99.90
30001;DHT22;16845;48.670;9.000;2022-09-16T11:55:29;15.00;99.90
30001;DHT22;16845;48.670;9.000;2022-09-16T11:58:04;15.00;99.90
30001;DHT22;16845;48.670;9.000;2022-09-16T12:00:38;15.20;99.90
30001;DHT22;16845;48.670;9.000;2022-09-16T12:03:12;15.30;99.90
30001;DHT22;16845;48.670;9.000;2022-09-16T12:05:48;15.70;99.90
30001;DHT22;16845;48.670;9.000;2022-09-16T12:08:24;16.20;99.90
30001;DHT22;16845;48.670;9.000;2022-09-16T12:10:58;16.60;99.90
30001;DHT22;16845;48.670;9.000;2022-09-16T12:13:32;16.50;99.90
30001;DHT22;16845;48.670;9.000;2022-09-16T12:16:04;16.40;99.90
30001;DHT22;16845;48.670;9.000;2022-09-16T12:18:37;16.20;99.90
30001;DHT22;16845;48.670;9.000;2022-09-16T12:21:12;16.30;99.90
30001;DHT22;16845;48.670;9.000;2022-09-16T12:23:44;16.10;99.90
30001;DHT22;16845;48.670;9.000;2022-09-16T12:26:17;15.90;99.90
30001;DHT22;16845;48.670;9.000;2022-09-16T12:28:49;15.60;99.90
30001;DHT22;16845;48.670;9.000;2022-09-16T12:31:22;15.40;99.90
30001;DHT22;16845;48.670;9.000;2022-09-16T12:33:55;15.40;99.90
30001;DHT22;16845;48.670;9.000;2022-09-16T12:36:26;15.20;99.90
30001;DHT22;16845;48.670;9.000;2022-09-16T12:38:57;15.10;99.90
30001;DHT22;16845;48.670;9.000;2022-09-16T12:41:44;15.00;99.90
30001;DHT22;16845;48.670;9.000;2022-09-16T12:44:38;14.80;99.90
30001;DHT22;16845;48.670;9.000;2022-09-16T12:47:27;14.60;99.90
30001;DHT22;16845;48.670;9.000;2022-09-16T12:50:15;14.70;99.90
30001;DHT22;16845;48.670;9.000;2022-09-16T12:53:16;15.00;99.90
30001;DHT22;16845;48.670;9.000;2022-09-16T12:55:58;15.90;99.90
30001;DHT22;16845;48.670;9.000;2022-09-16T12:58:53;16.10;99.90
30001;DHT22;16845;48.670;9.000;2022-09-16T13:01:25;15.90;99.90
30001;DHT22;16845;48.670;9.000;2022-09-16T13:03:56;15.90;99.90
30001;DHT22;16845;48.670;9.000;2022-09-16T13:06:27;16.00;99.90
30001;DHT22;16845;48.670;9.000;2022-09-16T13:08:58;16.30;99.90
30001;DHT22;16845;48.670;9.000;2022-09-16T13:11:40;16.40;99.90
30001;DHT22;16845;48.670;9.000;2022-09-16T13:14:31;17.40;99.90
30001;DHT22;16845;48.670;9.000;2022-09-16T13:17:01;20.40;99.90
30001;DHT22;16845;48.670;9.000;2022-09-16T13:19:36;22.50;99.90
30001;DHT22;16845;48.670;9.000;2022-09-16T13:22:19;24.20;99.90
30001;DHT22;16845;48.670;9.000;2022-09-16T13:24:52;25.90;99.90
30001;DHT22;16845;48.670;9.000;2022-09-16T13:27:27;27.00;98.40
30001;DHT22;16845;48.670;9.000;2022-09-16T13:30:24;25.80;97.60
30001;DHT22;16845;48.670;9.000;2022-09-16T13:33:02;24.00;99.50
30001;DHT22;16845;48.670;9.000;2022-09-16T13:35:38;22.50;99.90
30001;DHT22;16845;48.670;9.000;2022-09-16T13:38:21;21.60;99.90
30001;DHT22;16845;48.670;9.000;2022-09-16T13:40:54;20.60;99.90
30001;DHT22;16845;48.670;9.000;2022-09-16T13:43:30;20.70;99.90
30001;DHT22;16845;48.670;9.000;2022-09-16T13:46:08;20.20;99.90
30001;DHT22;16845;48.670;9.000;2022-09-16T13:48:43;19.70;99.90
30001;DHT22;16845;48.670;9.000;2022-09-16T13:51:16;18.70;99.90
30001;DHT22;16845;48.670;9.000;2022-09-16T13:53:46;18.20;99.90
30001;DHT22;16845;48.670;9.000;2022-09-16T13:56:33;17.80;99.90
30001;DHT22;16845;48.670;9.000;2022-09-16T13:59:22;17.20;99.90
30001;DHT22;16845;48.670;9.000;2022-09-16T14:02:01;16.90;99.90
30001;DHT22;16845;48.670;9.000;2022-09-16T14:04:45;16.60;99.90
30001;DHT22;16845;48.670;9.000;2022-09-16T14:07:28;16.30;99.90
30001;DHT22;16845;48.670;9.000;2022-09-16T14:09:59;16.00;99.90
30001;DHT22;16845;48.670;9.000;2022-09-16T14:12:38;15.90;99.90
30001;DHT22;16845;48.670;9.000;2022-09-16T14:15:09;15.90;99.90
30001;DHT22;16845;48.670;9.000;2022-09-16T14:17:42;15.70;99.90
30001;DHT22;16845;48.670;9.000;2022-09-16T14:20:19;15.50;99.90
30001;DHT22;16845;48.670;9.000;2022-09-16T14:22:47;15.40;99.90
30001;DHT22;16845;48.670;9.000;2022-09-16T14:25:28;15.40;99.90
30001;DHT22;16845;48.670;9.000;2022-09-16T14:28:18;15.30;99.90
30001;DHT22;16845;48.670;9.000;2022-09-16T14:30:52;15.50;99.90
30001;DHT22;16845;48.670;9.000;2022-09-16T14:33:26;15.60;99.90
30001;DHT22;16845;48.670;9.000;2022-09-16T14:35:55;15.70;99.90
30001;DHT22;16845;48.670;9.000;2022-09-16T14:38:31;15.80;99.90
30001;DHT22;16845;48.670;9.000;2022-09-16T14:41:18;15.90;99.90
30001;DHT22;16845;48.670;9.000;2022-09-16T14:43:48;15.90;99.90
30001;DHT22;16845;48.670;9.000;2022-09-16T14:46:17;15.90;99.90
30001;DHT22;16845;48.670;9.000;2022-09-16T14:48:47;15.90;99.90
30001;DHT22;16845;48.670;9.000;2022-09-16T14:51:20;15.80;99.90
30001;DHT22;16845;48.670;9.000;2022-09-16T14:53:56;15.70;99.90
30001;DHT22;16845;48.670;9.000;2022-09-16T14:56:38;15.70;99.90
30001;DHT22;16845;48.670;9.000;2022-09-16T14:59:09;15.50;99.90
30001;DHT22;16845;48.670;9.000;2022-09-16T15:01:39;15.50;99.90
30001;DHT22;16845;48.670;9.000;2022-09-16T15:04:13;15.40;99.90
30001;DHT22;16845;48.670;9.000;2022-09-16T15:06:48;15.40;99.90
30001;DHT22;16845;48.670;9.000;2022-09-16T15:09:22;15.20;99.90
30001;DHT22;16845;48.670;9.000;2022-09-16T15:11:54;15.30;99.90
30001;DHT22;16845;48.670;9.000;2022-09-16T15:14:24;15.30;99.90
30001;DHT22;16845;48.670;9.000;2022-09-16T15:16:54;15.30;99.90
30001;DHT22;16845;48.670;9.000;2022-09-16T15:19:26;15.30;99.90
30001;DHT22;16845;48.670;9.000;2022-09-16T15:21:56;15.20;99.90
30001;DHT22;16845;48.670;9.000;2022-09-16T15:24:26;15.10;99.90
30001;DHT22;16845;48.670;9.000;2022-09-16T15:26:57;14.80;99.90
30001;DHT22;16845;48.670;9.000;2022-09-16T15:29:30;14.80;99.90
30001;DHT22;16845;48.670;9.000;2022-09-16T15:32:13;14.90;99.90
30001;DHT22;16845;48.670;9.000;2022-09-16T15:34:45;14.90;99.90
30001;DHT22;16845;48.670;9.000;2022-09-16T15:37:30;14.90;99.90
30001;DHT22;16845;48.670;9.000;2022-09-16T15:40:21;14.90;99.90
30001;DHT22;16845;48.670;9.000;2022-09-16T15:43:01;14.90;99.90
30001;DHT22;16845;48.670;9.000;2022-09-16T15:45:29;14.90;99.90
30001;DHT22;16845;48.670;9.000;2022-09-16T15:48:00;14.90;99.90
30001;DHT22;16845;48.670;9.000;2022-09-16T15:50:37;15.10;99.90
30001;DHT22;16845;48.670;9.000;2022-09-16T15:53:08;15.20;99.90
30001;DHT22;16845;48.670;9.000;2022-09-16T15:55:40;15.20;99.90
30001;DHT22;16845;48.670;9.000;2022-09-16T15:58:12;15.20;99.90
30001;DHT22;16845;48.670;9.000;2022-09-16T16:00:58;15.20;99.90
30001;DHT22;16845;48.670;9.000;2022-09-16T16:03:31;15.00;99.90
30001;DHT22;16845;48.670;9.000;2022-09-16T16:06:03;14.70;99.90
30001;DHT22;16845;48.670;9.000;2022-09-16T16:08:41;14.50;99.90
30001;DHT22;16845;48.670;9.000;2022-09-16T16:11:10;14.40;99.90
30001;DHT22;16845;48.670;9.000;2022-09-16T16:13:38;14.30;99.90
30001;DHT22;16845;48.670;9.000;2022-09-16T16:16:06;14.10;99.90